CheckWX is a tool to help pilots better visualize weather data.  It is not intended as a substitute for an official pre-flight weather briefing.

05:04:16 UTC

KVNY METAR
Van Nuys Airport
Van Nuys, California, USA
Current

13 mins ago

KVNY 220451Z 27003KT 10SM CLR 11/07 A3018 RMK AO2 SLP216 T01110072
Observed
Jan-22 @ 04:51 UTC
Wind
  • 270° at 3 KTS
Visibility
10 SM
Flight Rules
VFR
Cloud Levels
  • Clear skies
Temperature
11°C / 52°F
Dewpoint
C / 45°F
Humidity
77%
Altimeter
30.18" Hg
Pressure
1022.02 hPa
Previous

1 hour ago

KVNY 220351Z 27003KT 10SM CLR 12/08 A3017 RMK AO2 SLP214 T01170078
Observed
Jan-22 @ 03:51 UTC
Wind
  • 270° at 3 KTS
Visibility
10 SM
Flight Rules
VFR
Cloud Levels
  • Clear skies
Temperature
12°C / 54°F
Dewpoint
C / 46°F
Humidity
77%
Altimeter
30.17" Hg
Pressure
1021.72 hPa
Previous

2 hours ago

KVNY 220251Z 27004KT 10SM BKN030 BKN036 13/08 A3015 RMK AO2 SLP208 T01280078 53011
Observed
Jan-22 @ 02:51 UTC
Wind
  • 270° at 4 KTS
Visibility
10 SM
Flight Rules
MVFR
Cloud Levels
  • Broken at 3,000' AGL
  • Broken at 3,600' AGL
Temperature
13°C / 55°F
Dewpoint
C / 46°F
Humidity
72%
Altimeter
30.15" Hg
Pressure
1021.02 hPa